Time;durP1;ratioP1;P1;durP2;ratioP2;P2;SDS_P1;SDS_P2;PMS_P1;PMS_P2;Temp;Humidity;BMP_temperature;BMP_pressure;BME280_temperature;BME280_humidity;BME280_pressure;Samples;Min_cycle;Max_cycle;Signal;HPM_P1;HPM_P2
2023/04/28 00:02:14;;;;;;;9.75;4.30;;;;;;;;;;5092823;28;20166;-47
2023/04/28 00:04:40;;;;;;;8.65;4.15;;;12.10;99.90;;;;;;5092693;28;20198;-50
2023/04/28 00:07:06;;;;;;;7.18;4.55;;;12.10;99.90;;;;;;5091963;28;20256;-47
2023/04/28 00:09:32;;;;;;;7.50;5.20;;;12.10;99.90;;;;;;5092775;28;20628;-47
2023/04/28 00:11:58;;;;;;;12.15;4.72;;;12.10;99.90;;;;;;5092632;28;20228;-45
2023/04/28 00:14:24;;;;;;;7.50;4.45;;;12.10;99.90;;;;;;5092724;28;20168;-52
2023/04/28 00:16:50;;;;;;;9.25;4.82;;;12.00;99.90;;;;;;5092780;28;20177;-51
2023/04/28 00:19:16;;;;;;;8.23;4.53;;;12.10;99.90;;;;;;5092597;28;20169;-49
2023/04/28 00:21:41;;;;;;;8.52;4.60;;;12.10;99.90;;;;;;5092526;28;20165;-48
2023/04/28 00:24:07;;;;;;;10.32;4.85;;;12.00;99.90;;;;;;5086327;28;20220;-49
2023/04/28 00:26:32;;;;;;;10.27;4.70;;;12.10;99.90;;;;;;5082056;28;20189;-46
2023/04/28 00:28:58;;;;;;;9.25;5.53;;;12.10;99.90;;;;;;5087277;28;20162;-46
2023/04/28 00:31:23;;;;;;;12.27;5.43;;;12.10;99.90;;;;;;5072127;28;20197;-47
2023/04/28 00:33:49;;;;;;;8.35;4.50;;;12.10;99.90;;;;;;5071357;28;20192;-46
2023/04/28 00:36:15;;;;;;;8.32;4.32;;;;;;;;;;5072079;28;20520;-45
2023/04/28 00:38:41;;;;;;;8.00;4.80;;;12.10;99.90;;;;;;5072012;28;20223;-48
2023/04/28 00:41:09;;;;;;;7.53;4.22;;;12.10;99.90;;;;;;5072322;28;20157;-46
2023/04/28 00:43:45;;;;;;;6.93;4.75;;;12.10;99.90;;;;;;5072388;28;20629;-49
2023/04/28 00:46:18;;;;;;;7.15;4.20;;;12.10;99.90;;;;;;5071901;28;20169;-48
2023/04/28 00:48:44;;;;;;;7.38;5.20;;;;;;;;;;5071859;28;20166;-46
2023/04/28 00:51:10;;;;;;;6.18;4.95;;;12.10;99.90;;;;;;5071835;28;20162;-47
2023/04/28 00:53:36;;;;;;;10.50;4.88;;;12.10;99.90;;;;;;5073904;28;20187;-46
2023/04/28 00:56:02;;;;;;;7.13;4.80;;;;;;;;;;5092219;28;20648;-45
2023/04/28 00:58:29;;;;;;;8.85;4.95;;;12.00;99.90;;;;;;5092129;28;20170;-44
2023/04/28 01:01:05;;;;;;;9.25;4.85;;;12.10;99.90;;;;;;5092063;28;20275;-44
2023/04/28 01:03:34;;;;;;;9.20;4.60;;;12.00;99.90;;;;;;5092058;28;20175;-45
2023/04/28 01:05:59;;;;;;;8.75;4.82;;;12.00;99.90;;;;;;5091886;28;20170;-45
2023/04/28 01:08:30;;;;;;;7.75;5.22;;;12.00;99.90;;;;;;5092276;28;20646;-45
2023/04/28 01:10:56;;;;;;;11.13;5.40;;;;;;;;;;5091773;28;20212;-45
2023/04/28 01:13:21;;;;;;;16.88;5.90;;;12.00;99.90;;;;;;5091853;28;20205;-45
2023/04/28 01:15:47;;;;;;;8.25;5.43;;;12.00;99.90;;;;;;5091817;28;20181;-45
2023/04/28 01:18:14;;;;;;;8.40;5.03;;;12.00;99.90;;;;;;5091824;28;20192;-44
2023/04/28 01:20:40;;;;;;;16.08;5.65;;;;;;;;;;5091859;28;20499;-45
2023/04/28 01:23:14;;;;;;;9.20;5.63;;;12.00;99.90;;;;;;5091376;28;20169;-44
2023/04/28 01:25:40;;;;;;;11.63;5.45;;;12.00;99.90;;;;;;5091789;28;20242;-45
2023/04/28 01:28:06;;;;;;;10.82;5.43;;;12.00;99.90;;;;;;5092092;28;20187;-44
2023/04/28 01:30:31;;;;;;;9.90;6.13;;;12.00;99.90;;;;;;5091663;28;20180;-44
2023/04/28 01:32:57;;;;;;;12.70;5.32;;;11.90;99.90;;;;;;5091697;28;20321;-45
2023/04/28 01:35:23;;;;;;;6.68;4.97;;;11.90;99.90;;;;;;5091941;28;20169;-45
2023/04/28 01:37:48;;;;;;;9.40;5.75;;;11.90;99.90;;;;;;5091678;28;20169;-46
2023/04/28 01:40:14;;;;;;;8.63;5.72;;;11.90;99.90;;;;;;5091612;28;20165;-44
2023/04/28 01:42:40;;;;;;;13.05;5.90;;;11.90;99.90;;;;;;5091904;28;20180;-45
2023/04/28 01:45:06;;;;;;;8.55;6.47;;;11.90;99.90;;;;;;5094710;28;20251;-45
2023/04/28 01:47:31;;;;;;;7.40;5.72;;;12.00;99.90;;;;;;5095692;28;20191;-47
2023/04/28 01:49:57;;;;;;;11.70;5.88;;;12.00;99.90;;;;;;5095669;28;20161;-47
2023/04/28 01:52:23;;;;;;;8.52;6.07;;;12.00;99.90;;;;;;5095508;28;20196;-45
2023/04/28 01:54:49;;;;;;;11.50;6.53;;;11.80;99.90;;;;;;5093667;28;20260;-51
2023/04/28 01:57:15;;;;;;;10.27;6.53;;;11.90;99.90;;;;;;5095175;28;20181;-52
2023/04/28 01:59:41;;;;;;;12.75;6.80;;;11.90;99.90;;;;;;5095201;28;20518;-52
2023/04/28 02:02:06;;;;;;;10.27;6.30;;;11.90;99.90;;;;;;5095853;28;20688;-52
2023/04/28 02:04:32;;;;;;;12.52;7.05;;;11.90;99.90;;;;;;5095412;28;20166;-51
2023/04/28 02:06:58;;;;;;;9.18;6.35;;;11.90;99.90;;;;;;5095316;28;20547;-52
2023/04/28 02:09:23;;;;;;;12.50;6.38;;;11.90;99.90;;;;;;5095270;28;20181;-52
2023/04/28 02:11:49;;;;;;;9.80;6.95;;;11.90;99.90;;;;;;5095013;28;20293;-49
2023/04/28 02:14:15;;;;;;;11.50;6.80;;;11.90;99.90;;;;;;5095258;28;20261;-52
2023/04/28 02:16:41;;;;;;;10.20;6.00;;;11.80;99.90;;;;;;5095071;28;20510;-52
2023/04/28 02:19:07;;;;;;;10.80;6.40;;;11.90;99.90;;;;;;5095478;28;20161;-52
2023/04/28 02:21:32;;;;;;;12.23;6.32;;;11.90;99.90;;;;;;5095290;28;20181;-52
2023/04/28 02:23:58;;;;;;;8.38;5.82;;;11.90;99.90;;;;;;5085129;28;20204;-52
2023/04/28 02:26:24;;;;;;;9.70;6.55;;;;;;;;;;5074943;28;20178;-52
2023/04/28 02:28:50;;;;;;;8.10;5.97;;;11.80;99.90;;;;;;5074874;28;20255;-52
2023/04/28 02:31:16;;;;;;;8.85;6.10;;;11.80;99.90;;;;;;5074455;28;20248;-49
2023/04/28 02:33:41;;;;;;;8.80;6.25;;;11.80;99.90;;;;;;5074594;28;20205;-52
2023/04/28 02:36:08;;;;;;;14.77;6.40;;;;;;;;;;5074839;28;20166;-51
2023/04/28 02:38:34;;;;;;;9.02;6.50;;;11.70;99.90;;;;;;5075035;28;20169;-53
2023/04/28 02:41:04;;;;;;;7.47;6.25;;;11.60;99.90;;;;;;5074393;28;20252;-51
2023/04/28 02:43:30;;;;;;;10.65;7.07;;;11.60;99.90;;;;;;5074635;28;20190;-52
2023/04/28 02:45:56;;;;;;;10.30;6.25;;;11.60;99.90;;;;;;5074311;28;20178;-53
2023/04/28 02:48:23;;;;;;;12.85;6.20;;;11.60;99.90;;;;;;5074456;28;20164;-50
2023/04/28 02:50:49;;;;;;;11.20;6.55;;;11.60;99.90;;;;;;5074504;28;20186;-51
2023/04/28 02:53:15;;;;;;;14.80;6.90;;;11.70;99.90;;;;;;5076929;28;20201;-51
2023/04/28 02:55:41;;;;;;;8.75;6.65;;;;;;;;;;5093458;28;20193;-53
2023/04/28 02:58:06;;;;;;;8.88;6.07;;;11.60;99.90;;;;;;5094906;28;20176;-53
2023/04/28 03:00:32;;;;;;;10.00;6.55;;;11.50;99.90;;;;;;5094281;28;20167;-53
2023/04/28 03:02:58;;;;;;;13.23;6.65;;;11.60;99.90;;;;;;5093797;28;20168;-50
2023/04/28 03:05:23;;;;;;;13.82;6.88;;;11.60;99.90;;;;;;5094102;28;20161;-51
2023/04/28 03:07:49;;;;;;;7.57;6.38;;;;;;;;;;5094119;28;20201;-50
2023/04/28 03:10:15;;;;;;;9.82;6.72;;;11.60;99.90;;;;;;5094102;28;20266;-52
2023/04/28 03:12:41;;;;;;;9.52;6.82;;;;;;;;;;5094208;28;20209;-52
2023/04/28 03:15:07;;;;;;;8.40;7.07;;;11.50;99.90;;;;;;5094443;28;20168;-52
2023/04/28 03:17:35;;;;;;;9.40;6.68;;;11.60;99.90;;;;;;5094613;28;20174;-50
2023/04/28 03:20:01;;;;;;;8.18;6.15;;;11.50;99.90;;;;;;5093866;28;20173;-51
2023/04/28 03:22:27;;;;;;;7.07;6.38;;;11.50;99.90;;;;;;5094103;28;20173;-49
2023/04/28 03:24:52;;;;;;;10.05;6.72;;;11.60;99.90;;;;;;5074132;28;20173;-51
2023/04/28 03:27:18;;;;;;;8.75;6.43;;;11.50;99.90;;;;;;5073453;28;20166;-50
2023/04/28 03:29:44;;;;;;;10.05;7.00;;;11.60;99.90;;;;;;5073804;28;20170;-49
2023/04/28 03:32:09;;;;;;;15.80;7.63;;;11.50;99.90;;;;;;5073372;28;20237;-52
2023/04/28 03:34:35;;;;;;;8.00;6.95;;;11.40;99.90;;;;;;5072605;28;20652;-52
2023/04/28 03:37:01;;;;;;;9.52;7.00;;;11.40;99.90;;;;;;5073605;28;20182;-52
2023/04/28 03:39:26;;;;;;;8.02;6.18;;;11.40;99.90;;;;;;5073381;28;20162;-51
2023/04/28 03:41:52;;;;;;;15.07;7.13;;;11.30;99.90;;;;;;5073253;28;20169;-49
2023/04/28 03:44:18;;;;;;;11.13;7.13;;;11.30;99.90;;;;;;5073437;28;20177;-48
2023/04/28 03:46:43;;;;;;;8.25;6.60;;;11.30;99.90;;;;;;5073135;28;20626;-48
2023/04/28 03:49:09;;;;;;;12.52;7.05;;;;;;;;;;5072868;28;20167;-50
2023/04/28 03:51:35;;;;;;;12.18;7.15;;;11.30;99.90;;;;;;5073090;28;20687;-48
2023/04/28 03:54:00;;;;;;;8.77;6.18;;;11.20;99.90;;;;;;5084624;28;20178;-49
2023/04/28 03:56:26;;;;;;;12.35;7.32;;;11.20;99.90;;;;;;5093485;28;20257;-53
2023/04/28 03:58:52;;;;;;;9.20;6.72;;;11.10;99.90;;;;;;5093226;28;20172;-51
2023/04/28 04:01:17;;;;;;;9.27;7.45;;;11.10;99.90;;;;;;5093137;28;20168;-49
2023/04/28 04:03:43;;;;;;;9.02;7.10;;;11.00;99.90;;;;;;5093316;28;20230;-53
2023/04/28 04:06:08;;;;;;;11.63;7.65;;;11.00;99.90;;;;;;5092998;28;20602;-47
2023/04/28 04:08:34;;;;;;;10.00;7.63;;;11.10;99.90;;;;;;5093352;28;20632;-51
2023/04/28 04:11:00;;;;;;;12.25;7.32;;;10.90;99.90;;;;;;5092738;28;20253;-52
2023/04/28 04:13:25;;;;;;;13.82;7.38;;;10.90;99.90;;;;;;5092777;28;20201;-52
2023/04/28 04:15:51;;;;;;;12.77;8.27;;;11.10;99.90;;;;;;5093099;28;20170;-53
2023/04/28 04:18:17;;;;;;;13.45;8.35;;;11.00;99.90;;;;;;5093033;28;20260;-51
2023/04/28 04:20:43;;;;;;;13.77;7.40;;;11.00;99.90;;;;;;5092777;28;20162;-52
2023/04/28 04:23:09;;;;;;;13.10;8.05;;;11.00;99.90;;;;;;5085236;28;20200;-52
2023/04/28 04:25:35;;;;;;;11.20;7.30;;;11.00;99.90;;;;;;5072766;28;20205;-49
2023/04/28 04:28:00;;;;;;;9.55;7.32;;;10.90;99.90;;;;;;5072403;28;20253;-53
2023/04/28 04:30:26;;;;;;;14.82;8.63;;;10.90;99.90;;;;;;5072199;28;20166;-53
2023/04/28 04:32:52;;;;;;;15.68;8.18;;;10.90;99.90;;;;;;5072114;28;20338;-52
2023/04/28 04:35:18;;;;;;;14.25;6.97;;;;;;;;;;5072206;28;20166;-48
2023/04/28 04:37:43;;;;;;;12.07;7.45;;;10.90;99.90;;;;;;5072018;28;20243;-50
2023/04/28 04:40:09;;;;;;;14.00;7.95;;;10.90;99.90;;;;;;5072066;28;20201;-53
2023/04/28 04:42:35;;;;;;;12.55;8.77;;;11.00;99.90;;;;;;5072643;28;20170;-52
2023/04/28 04:45:01;;;;;;;10.05;6.97;;;11.00;99.90;;;;;;5072275;28;20165;-50
2023/04/28 04:47:27;;;;;;;14.15;7.45;;;11.00;99.90;;;;;;5072129;28;20174;-45
2023/04/28 04:49:52;;;;;;;12.93;7.35;;;11.00;99.90;;;;;;5071961;28;20185;-46
2023/04/28 04:52:18;;;;;;;9.95;6.97;;;11.00;99.90;;;;;;5071892;28;20669;-45
2023/04/28 04:54:44;;;;;;;10.25;7.25;;;11.10;99.90;;;;;;5080620;28;20180;-48
2023/04/28 04:57:10;;;;;;;11.32;7.25;;;;;;;;;;5092212;28;20173;-45
2023/04/28 04:59:36;;;;;;;10.27;6.85;;;11.10;99.90;;;;;;5092524;28;20158;-46
2023/04/28 05:02:02;;;;;;;11.25;7.57;;;11.10;99.90;;;;;;5091949;28;20682;-46
2023/04/28 05:04:40;;;;;;;13.77;7.80;;;11.10;99.90;;;;;;5092047;28;20659;-53
2023/04/28 05:07:06;;;;;;;10.60;7.28;;;;;;;;;;5092121;28;20620;-46
2023/04/28 05:09:32;;;;;;;13.52;8.00;;;11.10;99.90;;;;;;5092065;28;20170;-46
2023/04/28 05:11:57;;;;;;;11.27;7.18;;;11.10;99.90;;;;;;5078398;28;20705;-46
2023/04/28 05:14:23;;;;;;;14.68;7.53;;;11.10;99.90;;;;;;5071586;28;20204;-47
2023/04/28 05:16:48;;;;;;;9.90;7.35;;;11.10;99.90;;;;;;5071624;28;20646;-45
2023/04/28 05:19:15;;;;;;;9.98;6.57;;;11.20;99.90;;;;;;5085409;28;20169;-47
2023/04/28 05:21:40;;;;;;;10.15;7.05;;;11.20;99.90;;;;;;5089948;28;20260;-46
2023/04/28 05:24:06;;;;;;;10.07;7.13;;;11.20;99.90;;;;;;5071859;28;20255;-45
2023/04/28 05:26:32;;;;;;;11.32;6.88;;;;;;;;;;5071803;28;20170;-46
2023/04/28 05:28:57;;;;;;;9.30;6.68;;;11.30;99.90;;;;;;5084548;28;20629;-46
2023/04/28 05:31:23;;;;;;;9.98;6.50;;;11.30;99.90;;;;;;5091347;28;20169;-46
2023/04/28 05:33:49;;;;;;;10.30;6.78;;;;;;;;;;5091398;28;20252;-46
2023/04/28 05:36:17;;;;;;;11.52;6.72;;;11.20;99.90;;;;;;5084588;28;20201;-47
2023/04/28 05:38:43;;;;;;;11.77;7.15;;;11.20;99.90;;;;;;5071205;28;20662;-45
2023/04/28 05:41:08;;;;;;;9.35;6.43;;;11.20;99.90;;;;;;5074785;28;20200;-45
2023/04/28 05:43:35;;;;;;;9.05;6.63;;;11.20;99.90;;;;;;5090564;28;20253;-48
2023/04/28 05:46:01;;;;;;;9.98;6.95;;;11.30;99.90;;;;;;5091425;28;20531;-48
2023/04/28 05:48:26;;;;;;;8.68;6.50;;;11.30;99.90;;;;;;5091568;28;20173;-46
2023/04/28 05:50:52;;;;;;;11.52;6.40;;;11.40;99.90;;;;;;5091494;28;20189;-46
2023/04/28 05:53:17;;;;;;;8.55;6.15;;;11.40;99.90;;;;;;5091325;28;20213;-45
2023/04/28 05:55:43;;;;;;;6.80;6.05;;;11.40;99.90;;;;;;5091555;28;20180;-53
2023/04/28 05:58:08;;;;;;;10.10;5.68;;;11.40;99.90;;;;;;5091501;28;20177;-52
2023/04/28 06:00:34;;;;;;;13.75;6.25;;;11.30;99.90;;;;;;5091842;28;20210;-51
2023/04/28 06:03:00;;;;;;;8.95;6.03;;;11.40;99.90;;;;;;5091650;28;20621;-51
2023/04/28 06:05:26;;;;;;;10.23;6.03;;;11.40;99.90;;;;;;5083569;28;20170;-52
2023/04/28 06:07:52;;;;;;;8.80;5.93;;;11.50;99.90;;;;;;5071344;28;20668;-53
2023/04/28 06:10:19;;;;;;;9.05;5.97;;;11.60;99.90;;;;;;5078385;28;20210;-52
2023/04/28 06:12:44;;;;;;;10.25;6.20;;;11.50;99.90;;;;;;5072948;28;20210;-52
2023/04/28 06:15:10;;;;;;;12.23;6.70;;;11.50;99.90;;;;;;5084193;28;20183;-51
2023/04/28 06:17:37;;;;;;;9.35;5.93;;;11.50;99.90;;;;;;5091692;28;20256;-52
2023/04/28 06:20:03;;;;;;;10.55;6.32;;;11.50;99.90;;;;;;5091641;28;20174;-52
2023/04/28 06:22:29;;;;;;;13.07;6.45;;;11.50;99.90;;;;;;5075013;28;20231;-55
2023/04/28 06:24:54;;;;;;;8.63;6.72;;;11.50;99.90;;;;;;5070968;28;20170;-51
2023/04/28 06:27:20;;;;;;;8.43;6.45;;;11.50;99.90;;;;;;5076190;28;20231;-53
2023/04/28 06:29:45;;;;;;;9.55;6.63;;;11.50;99.90;;;;;;5091198;28;20636;-50
2023/04/28 06:32:11;;;;;;;10.13;6.82;;;11.60;99.90;;;;;;5093714;28;20649;-53
2023/04/28 06:34:37;;;;;;;12.63;7.10;;;;;;;;;;5095127;28;20629;-45
2023/04/28 06:37:03;;;;;;;10.80;6.97;;;11.70;99.90;;;;;;5095216;28;20633;-53
2023/04/28 06:39:29;;;;;;;12.48;6.72;;;11.80;99.90;;;;;;5094815;28;20214;-53
2023/04/28 06:41:54;;;;;;;9.60;7.20;;;11.90;99.90;;;;;;5094977;28;20174;-52
2023/04/28 06:44:20;;;;;;;8.30;7.03;;;11.80;99.90;;;;;;5094633;28;20203;-50
2023/04/28 06:46:45;;;;;;;10.82;6.45;;;11.70;99.90;;;;;;5094608;28;20169;-53
2023/04/28 06:49:11;;;;;;;8.93;7.13;;;11.80;99.90;;;;;;5094852;28;20617;-53
2023/04/28 06:51:37;;;;;;;9.52;7.30;;;;;;;;;;5094515;28;20187;-51
2023/04/28 06:54:03;;;;;;;11.00;7.07;;;11.70;99.90;;;;;;5095225;28;20268;-53
2023/04/28 06:56:28;;;;;;;10.23;7.95;;;11.60;99.90;;;;;;5094344;28;20169;-53
2023/04/28 06:58:54;;;;;;;11.32;7.38;;;11.70;99.90;;;;;;5076155;28;20657;-53
2023/04/28 07:01:20;;;;;;;10.02;8.02;;;11.70;99.90;;;;;;5074171;28;20181;-53
2023/04/28 07:03:45;;;;;;;18.58;8.50;;;11.80;99.90;;;;;;5074654;28;20260;-53
2023/04/28 07:06:11;;;;;;;10.85;7.75;;;11.70;99.90;;;;;;5086748;28;20225;-53
2023/04/28 07:08:37;;;;;;;8.77;7.60;;;11.70;99.90;;;;;;5094474;28;20164;-52
2023/04/28 07:11:03;;;;;;;14.98;7.70;;;11.80;99.90;;;;;;5094605;28;20217;-53
2023/04/28 07:13:29;;;;;;;11.73;8.32;;;11.80;99.90;;;;;;5088638;28;20298;-49
2023/04/28 07:15:55;;;;;;;11.43;8.65;;;11.80;99.90;;;;;;5073973;28;20174;-53
2023/04/28 07:18:21;;;;;;;11.25;7.75;;;11.90;99.90;;;;;;5073846;28;20264;-53
2023/04/28 07:20:47;;;;;;;12.10;8.52;;;12.00;99.90;;;;;;5089525;28;20264;-53
2023/04/28 07:23:13;;;;;;;10.85;7.72;;;12.00;99.90;;;;;;5093855;28;20195;-53
2023/04/28 07:25:42;;;;;;;14.18;8.88;;;;;;;;;;5077658;28;20170;-53
2023/04/28 07:28:07;;;;;;;13.80;8.00;;;12.30;99.90;;;;;;5073815;28;20178;-53
2023/04/28 07:30:33;;;;;;;11.20;7.88;;;12.30;99.90;;;;;;5073981;28;20174;-48
2023/04/28 07:33:00;;;;;;;15.77;8.57;;;12.30;99.90;;;;;;5073708;28;20205;-53
2023/04/28 07:35:25;;;;;;;11.45;7.70;;;12.60;99.90;;;;;;5083445;28;20248;-53
2023/04/28 07:37:51;;;;;;;9.88;8.18;;;12.60;99.90;;;;;;5092071;28;20639;-51
2023/04/28 07:40:18;;;;;;;13.15;8.40;;;12.90;99.90;;;;;;5079345;28;20253;-53
2023/04/28 07:42:44;;;;;;;9.35;7.20;;;;;;;;;;5092051;28;20180;-53
2023/04/28 07:45:10;;;;;;;10.73;8.57;;;13.00;99.90;;;;;;5093502;28;20165;-52
2023/04/28 07:47:36;;;;;;;11.00;7.90;;;13.10;99.90;;;;;;5094023;28;20177;-52
2023/04/28 07:50:04;;;;;;;9.82;8.27;;;14.50;99.90;;;;;;5094004;28;20168;-50
2023/04/28 07:52:30;;;;;;;10.15;8.38;;;13.50;99.90;;;;;;5093521;28;20209;-52
2023/04/28 07:54:56;;;;;;;13.50;8.07;;;13.60;99.90;;;;;;5093244;28;20176;-53
2023/04/28 07:57:22;;;;;;;10.07;7.63;;;13.70;99.90;;;;;;5085273;28;20547;-52
2023/04/28 07:59:47;;;;;;;13.73;8.82;;;13.80;99.90;;;;;;5072876;28;20245;-52
2023/04/28 08:02:13;;;;;;;14.20;8.10;;;;;;;;;;5072932;28;20180;-53
2023/04/28 08:04:39;;;;;;;10.88;7.38;;;13.90;99.90;;;;;;5072670;28;20617;-53
2023/04/28 08:07:05;;;;;;;9.93;8.32;;;14.10;99.90;;;;;;5073152;28;20181;-52
2023/04/28 08:09:31;;;;;;;10.88;8.65;;;14.10;99.90;;;;;;5073012;28;20166;-53
2023/04/28 08:11:57;;;;;;;17.73;7.72;;;14.10;99.90;;;;;;5072388;28;20267;-53
2023/04/28 08:14:23;;;;;;;13.30;8.25;;;14.40;99.90;;;;;;5072898;28;20182;-52
2023/04/28 08:16:49;;;;;;;13.90;8.52;;;14.70;99.90;;;;;;5072487;28;20170;-53
2023/04/28 08:19:14;;;;;;;8.68;7.75;;;14.70;99.90;;;;;;5072574;28;20162;-53
2023/04/28 08:21:40;;;;;;;10.13;7.80;;;;;;;;;;5072705;28;20215;-53
2023/04/28 08:24:09;;;;;;;10.45;8.13;;;;;;;;;;5072499;28;20158;-46
2023/04/28 08:26:35;;;;;;;11.75;8.10;;;15.00;99.90;;;;;;5072947;28;20174;-48
2023/04/28 08:29:01;;;;;;;13.80;8.05;;;;;;;;;;5072789;28;20166;-46
2023/04/28 08:31:27;;;;;;;11.70;7.97;;;14.80;99.90;;;;;;5072216;28;20216;-47
2023/04/28 08:33:53;;;;;;;11.93;7.68;;;14.90;99.90;;;;;;5072531;28;20174;-46
2023/04/28 08:36:18;;;;;;;13.50;9.35;;;14.70;99.90;;;;;;5091759;28;20174;-45
2023/04/28 08:38:44;;;;;;;11.85;8.00;;;14.70;99.90;;;;;;5092497;28;20188;-46
2023/04/28 08:41:14;;;;;;;10.68;8.10;;;14.80;99.90;;;;;;5092597;28;20193;-53
2023/04/28 08:43:41;;;;;;;13.48;11.32;;;14.60;99.90;;;;;;5092280;28;20210;-53
2023/04/28 08:46:08;;;;;;;14.02;12.27;;;14.70;99.90;;;;;;5092552;28;20209;-50
2023/04/28 08:48:44;;;;;;;10.60;7.97;;;14.70;99.90;;;;;;5091328;28;20581;-53
2023/04/28 08:51:15;;;;;;;7.72;6.43;;;14.80;99.90;;;;;;5092375;28;20247;-53
2023/04/28 08:53:43;;;;;;;14.05;9.48;;;14.70;99.90;;;;;;5091659;28;20218;-53
2023/04/28 08:56:12;;;;;;;13.73;11.40;;;14.70;99.90;;;;;;5092334;28;20164;-53
2023/04/28 08:58:38;;;;;;;9.93;8.63;;;14.60;99.90;;;;;;5091736;28;20531;-53
2023/04/28 09:01:04;;;;;;;17.70;13.50;;;14.40;99.90;;;;;;5092387;28;20161;-52
2023/04/28 09:03:34;;;;;;;15.63;12.45;;;14.50;99.90;;;;;;5091379;28;20168;-53
2023/04/28 09:06:01;;;;;;;19.50;12.52;;;14.50;99.90;;;;;;5091921;28;20252;-53
2023/04/28 09:08:27;;;;;;;16.45;11.93;;;14.50;99.90;;;;;;5091970;28;20169;-52
2023/04/28 09:11:09;;;;;;;9.73;8.35;;;14.40;99.90;;;;;;5091729;28;20217;-53
2023/04/28 09:13:35;;;;;;;10.02;7.95;;;14.40;99.90;;;;;;5092161;28;20200;-54
2023/04/28 09:16:03;;;;;;;9.75;8.20;;;14.50;99.90;;;;;;5092458;28;20308;-53
2023/04/28 09:18:31;;;;;;;10.88;9.18;;;14.50;99.90;;;;;;5091802;28;20173;-53
2023/04/28 09:21:08;;;;;;;10.75;8.15;;;14.60;99.90;;;;;;5090533;28;20175;-53
2023/04/28 09:23:45;;;;;;;9.27;8.27;;;14.80;99.90;;;;;;5091953;28;20644;-53
2023/04/28 09:26:10;;;;;;;13.52;9.18;;;14.70;99.90;;;;;;5092145;28;20189;-53
2023/04/28 09:28:36;;;;;;;10.10;9.00;;;14.60;99.90;;;;;;5071907;28;20209;-51
2023/04/28 09:31:02;;;;;;;10.85;8.70;;;14.50;99.90;;;;;;5072083;28;20162;-53
2023/04/28 09:33:29;;;;;;;11.68;9.18;;;;;;;;;;5085448;28;20248;-52
2023/04/28 09:35:54;;;;;;;10.98;9.10;;;14.70;99.90;;;;;;5091720;28;20165;-51
2023/04/28 09:38:21;;;;;;;14.68;12.52;;;14.70;99.90;;;;;;5091449;28;20165;-45
2023/04/28 09:40:58;;;;;;;17.15;15.10;;;14.70;99.90;;;;;;5091087;28;20165;-45
2023/04/28 09:43:26;;;;;;;17.13;15.07;;;14.80;99.90;;;;;;5091130;28;20211;-45
2023/04/28 09:45:52;;;;;;;18.80;15.35;;;14.70;99.90;;;;;;5091038;28;20687;-45
2023/04/28 09:48:29;;;;;;;19.17;13.38;;;14.80;99.90;;;;;;5090929;28;20170;-53
2023/04/28 09:50:56;;;;;;;17.30;13.60;;;14.70;99.90;;;;;;5091215;28;20173;-53
2023/04/28 09:53:22;;;;;;;18.63;15.25;;;14.80;99.90;;;;;;5091167;28;20254;-53
2023/04/28 09:55:50;;;;;;;18.13;14.38;;;14.80;99.90;;;;;;5091374;28;20215;-52
2023/04/28 09:58:18;;;;;;;17.30;11.60;;;14.70;99.90;;;;;;5074580;28;20748;-53
2023/04/28 10:00:44;;;;;;;12.95;9.43;;;14.90;99.90;;;;;;5071233;28;20173;-53
2023/04/28 10:03:11;;;;;;;12.38;9.88;;;14.80;99.90;;;;;;5071476;28;20204;-52
2023/04/28 10:05:39;;;;;;;9.88;7.88;;;;;;;;;;5072278;28;20251;-45
2023/04/28 10:08:05;;;;;;;8.65;7.43;;;14.80;99.90;;;;;;5075311;28;20185;-50
2023/04/28 10:10:30;;;;;;;9.70;7.10;;;14.80;99.90;;;;;;5074882;28;20217;-51
2023/04/28 10:12:56;;;;;;;6.88;6.07;;;15.00;99.90;;;;;;5074810;28;20212;-53
2023/04/28 10:15:23;;;;;;;7.05;5.90;;;;;;;;;;5074910;28;20165;-53
2023/04/28 10:17:50;;;;;;;7.32;5.95;;;15.20;99.90;;;;;;5074831;28;20174;-51
2023/04/28 10:20:16;;;;;;;6.88;5.30;;;15.10;99.90;;;;;;5075064;28;20180;-53
2023/04/28 10:23:16;;;;;;;6.85;5.50;;;15.10;99.90;;;;;;5074790;28;20575;-52
2023/04/28 10:25:45;;;;;;;7.35;5.10;;;15.00;99.90;;;;;;5074789;28;20178;-53
2023/04/28 10:28:10;;;;;;;7.80;6.82;;;15.10;99.90;;;;;;5091148;28;20428;-53
2023/04/28 10:30:36;;;;;;;7.55;5.68;;;15.10;99.90;;;;;;5095277;28;20173;-52
2023/04/28 10:33:05;;;;;;;6.38;5.20;;;15.10;99.90;;;;;;5094746;28;20234;-52
2023/04/28 10:35:31;;;;;;;7.53;5.65;;;15.20;99.90;;;;;;5094578;28;20509;-45
2023/04/28 10:38:13;;;;;;;5.18;4.68;;;15.10;99.90;;;;;;5094860;28;20223;-46
2023/04/28 10:40:38;;;;;;;6.15;5.55;;;15.30;99.90;;;;;;5094615;28;20161;-45
2023/04/28 10:43:05;;;;;;;5.60;5.10;;;;;;;;;;5095174;28;20170;-45
2023/04/28 10:45:51;;;;;;;6.88;5.60;;;15.70;99.90;;;;;;5094935;28;20168;-45
2023/04/28 10:48:20;;;;;;;5.60;4.82;;;16.00;99.90;;;;;;5094487;28;20633;-45
2023/04/28 10:53:45;;;;;;;8.48;5.47;;;16.30;99.90;;;;;;5094479;28;20295;-45
2023/04/28 10:56:11;;;;;;;4.82;4.38;;;16.70;99.90;;;;;;5091694;28;20173;-45
2023/04/28 10:58:41;;;;;;;6.68;5.10;;;;;;;;;;5073839;28;20281;-45
2023/04/28 11:01:19;;;;;;;5.15;4.68;;;17.20;99.90;;;;;;5073688;28;20502;-44
2023/04/28 11:03:45;;;;;;;5.22;4.72;;;17.80;99.90;;;;;;5073697;28;20173;-44
2023/04/28 11:06:27;;;;;;;5.45;4.50;;;17.80;99.90;;;;;;5073688;28;20196;-45
2023/04/28 11:09:11;;;;;;;5.22;4.72;;;17.50;99.90;;;;;;5083161;28;20165;-44
2023/04/28 11:11:38;;;;;;;7.63;4.55;;;17.40;99.90;;;;;;5091994;28;20225;-45
2023/04/28 11:14:17;;;;;;;6.35;4.03;;;17.50;99.90;;;;;;5073894;28;20235;-44
2023/04/28 11:16:59;;;;;;;4.60;4.20;;;17.50;99.90;;;;;;5072811;28;20219;-45
2023/04/28 11:19:27;;;;;;;4.85;4.25;;;17.60;99.90;;;;;;5073625;28;20640;-44
2023/04/28 11:21:56;;;;;;;4.68;3.95;;;17.80;99.90;;;;;;5073169;28;20541;-44
2023/04/28 11:24:26;;;;;;;4.43;4.03;;;18.20;99.90;;;;;;5073188;28;20172;-45
2023/04/28 11:26:52;;;;;;;7.20;3.95;;;18.20;99.90;;;;;;5073065;28;20198;-45
2023/04/28 11:29:30;;;;;;;3.53;3.22;;;18.20;99.90;;;;;;5073020;28;20194;-45
2023/04/28 11:31:56;;;;;;;3.30;3.05;;;;;;;;;;5072969;28;20211;-45
2023/04/28 11:34:23;;;;;;;4.10;3.80;;;18.10;99.90;;;;;;5073151;28;20696;-48
2023/04/28 11:36:49;;;;;;;3.50;3.25;;;18.20;99.90;;;;;;5073079;28;20253;-44
2023/04/28 11:39:15;;;;;;;4.20;3.78;;;18.50;99.90;;;;;;5072434;28;20244;-45
2023/04/28 11:41:42;;;;;;;3.92;3.40;;;18.60;99.90;;;;;;5072494;28;20165;-45
2023/04/28 11:44:18;;;;;;;3.70;3.33;;;18.90;99.90;;;;;;5071731;28;20212;-45
2023/04/28 11:47:00;;;;;;;5.70;3.20;;;18.90;99.90;;;;;;5072636;28;20369;-45
2023/04/28 11:49:27;;;;;;;3.83;3.53;;;18.80;99.90;;;;;;5075341;28;20668;-45
2023/04/28 11:51:54;;;;;;;3.22;2.92;;;18.70;99.90;;;;;;5092264;28;20201;-49
2023/04/28 11:54:22;;;;;;;3.53;3.22;;;18.80;99.90;;;;;;5093078;28;20626;-46
2023/04/28 11:56:48;;;;;;;4.35;3.55;;;19.20;99.90;;;;;;5092953;28;20153;-47
2023/04/28 11:59:14;;;;;;;3.53;3.20;;;19.40;99.90;;;;;;5092911;28;20630;-46
2023/04/28 12:01:47;;;;;;;3.67;3.38;;;19.60;99.90;;;;;;5092927;28;20167;-46
2023/04/28 12:04:14;;;;;;;3.65;3.35;;;20.10;99.90;;;;;;5093107;28;20177;-45
2023/04/28 12:06:42;;;;;;;4.55;3.20;;;19.90;99.90;;;;;;5092796;28;20193;-48
2023/04/28 12:09:15;;;;;;;3.88;3.53;;;20.00;99.90;;;;;;5092694;28;20648;-45
2023/04/28 12:11:52;;;;;;;4.43;3.60;;;20.00;99.90;;;;;;5092381;28;20316;-45
2023/04/28 12:14:18;;;;;;;3.80;3.50;;;19.80;99.90;;;;;;5092598;28;20165;-45
2023/04/28 12:16:43;;;;;;;3.67;3.38;;;19.60;99.90;;;;;;5092731;28;20169;-45
2023/04/28 12:19:10;;;;;;;4.25;3.85;;;19.70;99.90;;;;;;5092406;28;20174;-46
2023/04/28 12:21:39;;;;;;;3.65;3.35;;;20.00;99.90;;;;;;5072350;28;20158;-45
2023/04/28 12:24:20;;;;;;;3.35;3.05;;;20.10;99.90;;;;;;5073032;28;20216;-47
2023/04/28 12:26:47;;;;;;;3.55;3.22;;;20.00;99.90;;;;;;5072614;28;20189;-46
2023/04/28 12:29:38;;;;;;;4.10;3.80;;;20.30;99.90;;;;;;5071337;28;20579;-45
2023/04/28 12:32:05;;;;;;;4.13;3.60;;;20.60;99.90;;;;;;5072630;28;20190;-45
2023/04/28 12:34:32;;;;;;;5.35;3.47;;;20.60;99.90;;;;;;5072921;28;20319;-45
2023/04/28 12:37:01;;;;;;;4.18;3.72;;;20.90;99.90;;;;;;5072432;28;20170;-45
2023/04/28 12:39:27;;;;;;;4.00;3.70;;;21.10;99.90;;;;;;5072291;28;20226;-46
2023/04/28 12:41:54;;;;;;;4.03;3.72;;;20.80;99.90;;;;;;5072199;28;20245;-46
2023/04/28 12:44:21;;;;;;;3.53;3.22;;;20.60;99.90;;;;;;5072265;28;20174;-46
2023/04/28 12:46:47;;;;;;;3.95;3.42;;;20.30;99.90;;;;;;5071988;28;20162;-46
2023/04/28 12:49:12;;;;;;;3.70;3.40;;;19.90;99.90;;;;;;5074884;28;20169;-45
2023/04/28 12:51:38;;;;;;;6.13;4.10;;;19.50;99.90;;;;;;5091931;28;20175;-45
2023/04/28 12:54:04;;;;;;;5.22;4.20;;;19.30;99.90;;;;;;5092732;28;20219;-45